Time;durP1;ratioP1;P1;durP2;ratioP2;P2;SDS_P1;SDS_P2;PMS_P1;PMS_P2;Temp;Humidity;BMP_temperature;BMP_pressure;BME280_temperature;BME280_humidity;BME280_pressure;Samples;Min_cycle;Max_cycle;Signal;HPM_P1;HPM_P2
2023/05/21 00:00:53;;;;;;;6.18;3.92;;;;;;;;;;5092680;28;20055;-78
2023/05/21 00:03:19;;;;;;;6.30;3.78;;;;;;;;;;5082572;28;20051;-78
2023/05/21 00:05:46;;;;;;;5.28;3.95;;;;;;;;;;5064368;28;20134;-79
2023/05/21 00:08:13;;;;;;;7.57;4.10;;;;;;;;;;5062183;28;20484;-79
2023/05/21 00:10:39;;;;;;;11.60;4.50;;;;;;;;;;5078645;28;20055;-78
2023/05/21 00:13:05;;;;;;;7.85;4.30;;;;;;;;;;5074222;28;20085;-79
2023/05/21 00:15:31;;;;;;;7.57;4.25;;;;;;;;;;5089231;28;20444;-79
2023/05/21 00:17:56;;;;;;;7.47;4.43;;;;;;;;;;5076780;28;20096;-78
2023/05/21 00:20:22;;;;;;;10.05;4.28;;;;;;;;;;5080134;28;20044;-78
2023/05/21 00:22:48;;;;;;;9.07;4.82;;;;;;;;;;5084294;28;20140;-79
2023/05/21 00:25:14;;;;;;;9.23;4.72;;;;;;;;;;5074184;28;20123;-78
2023/05/21 00:27:40;;;;;;;7.57;4.10;;;;;;;;;;5091666;28;20040;-79
2023/05/21 00:30:07;;;;;;;8.18;5.07;;;;;;;;;;5062717;28;20082;-79
2023/05/21 00:32:33;;;;;;;8.63;4.70;;;;;;;;;;5088307;28;20506;-78
2023/05/21 00:34:59;;;;;;;14.40;4.60;;;;;;;;;;5072191;28;20031;-79
2023/05/21 00:37:25;;;;;;;9.38;4.60;;;;;;;;;;5082020;28;20062;-80
2023/05/21 00:39:51;;;;;;;10.32;4.80;;;;;;;;;;5067186;28;20037;-79
2023/05/21 00:42:17;;;;;;;8.88;4.68;;;;;;;;;;5081963;28;20116;-79
2023/05/21 00:44:46;;;;;;;7.85;5.00;;;;;;;;;;5073161;28;20139;-79
2023/05/21 00:47:13;;;;;;;9.52;4.90;;;;;;;;;;5061009;28;20044;-79
2023/05/21 00:49:40;;;;;;;6.82;4.93;;;;;;;;;;5078301;28;20036;-80
2023/05/21 00:52:06;;;;;;;6.97;4.82;;;;;;;;;;5070677;28;20169;-80
2023/05/21 00:54:32;;;;;;;11.45;5.32;;;;;;;;;;5086032;28;20406;-79
2023/05/21 00:56:58;;;;;;;10.00;5.07;;;;;;;;;;5062664;28;20516;-80
2023/05/21 00:59:24;;;;;;;12.45;4.97;;;;;;;;;;5077710;28;20047;-79
2023/05/21 01:01:54;;;;;;;10.23;4.95;;;;;;;;;;5082932;28;20037;-79
2023/05/21 01:04:22;;;;;;;7.75;5.22;;;;;;;;;;5080157;28;20051;-79
2023/05/21 01:06:48;;;;;;;7.05;5.10;;;;;;;;;;5090065;28;20040;-79
2023/05/21 01:09:14;;;;;;;7.38;5.10;;;;;;;;;;5069626;28;20048;-78
2023/05/21 01:11:42;;;;;;;9.73;5.18;;;;;;;;;;5091676;28;20051;-80
2023/05/21 01:14:11;;;;;;;6.60;5.07;;;;;;;;;;5063987;28;20055;-79
2023/05/21 01:16:37;;;;;;;;;;;;;;;;;;5101292;27;20098;-80
2023/05/21 01:19:04;;;;;;;7.70;4.82;;;;;;;;;;5097898;28;19916;-80
2023/05/21 01:21:30;;;;;;;9.25;5.07;;;;;;;;;;5077012;28;20040;-80
2023/05/21 01:23:57;;;;;;;10.63;5.25;;;;;;;;;;5077146;28;20090;-79
2023/05/21 01:26:24;;;;;;;11.18;4.95;;;;;;;;;;5064091;28;20162;-79
2023/05/21 01:28:51;;;;;;;10.38;5.22;;;;;;;;;;5064112;28;20028;-80
2023/05/21 01:31:23;;;;;;;6.70;5.05;;;;;;;;;;5077930;28;20537;-80
2023/05/21 01:33:50;;;;;;;7.75;5.20;;;;;;;;;;5074548;28;20058;-80
2023/05/21 01:36:22;;;;;;;8.35;5.38;;;;;;;;;;5055730;28;20113;-79
2023/05/21 01:38:55;;;;;;;7.93;6.03;;;;;;;;;;5070281;28;20342;-79
2023/05/21 01:41:21;;;;;;;8.30;6.03;;;;;;;;;;5060814;28;20040;-79
2023/05/21 01:43:48;;;;;;;11.00;5.78;;;;;;;;;;5081354;28;20074;-80
2023/05/21 01:46:16;;;;;;;7.70;5.95;;;;;;;;;;5078177;28;20133;-80
2023/05/21 01:48:42;;;;;;;;;;;;;;;;;;5065485;28;20066;-79
2023/05/21 01:51:08;;;;;;;9.75;5.93;;;;;;;;;;5095010;27;19931;-79
2023/05/21 01:53:37;;;;;;;10.32;5.95;;;;;;;;;;5063994;28;20035;-80
2023/05/21 01:56:03;;;;;;;7.63;5.85;;;;;;;;;;5061310;28;20155;-79
2023/05/21 01:58:29;;;;;;;11.07;6.45;;;;;;;;;;5064035;28;20891;-78
2023/05/21 02:00:55;;;;;;;10.73;6.03;;;;;;;;;;5070661;28;20062;-79
2023/05/21 02:03:22;;;;;;;13.55;5.82;;;;;;;;;;5078839;28;20087;-80
2023/05/21 02:05:50;;;;;;;10.75;6.30;;;;;;;;;;5052977;28;20037;-79
2023/05/21 02:08:18;;;;;;;8.15;6.10;;;;;;;;;;5066930;28;20062;-78
2023/05/21 02:10:44;;;;;;;8.50;5.73;;;;;;;;;;5086606;28;20040;-79
2023/05/21 02:13:11;;;;;;;11.10;6.63;;;;;;;;;;5078719;28;20397;-79
2023/05/21 02:15:37;;;;;;;10.15;6.35;;;;;;;;;;5082382;28;20039;-80
2023/05/21 02:18:03;;;;;;;11.52;6.18;;;;;;;;;;5082501;28;20047;-79
2023/05/21 02:20:30;;;;;;;10.18;6.28;;;;;;;;;;5089557;28;20122;-79
2023/05/21 02:22:56;;;;;;;10.32;6.28;;;;;;;;;;5088712;27;20069;-79
2023/05/21 02:25:22;;;;;;;9.52;6.70;;;;;;;;;;5082342;28;20032;-79
2023/05/21 02:27:52;;;;;;;11.20;6.88;;;;;;;;;;5068615;28;20028;-79
2023/05/21 02:30:18;;;;;;;12.23;6.65;;;;;;;;;;5062896;28;20047;-79
2023/05/21 02:32:47;;;;;;;10.98;6.43;;;;;;;;;;5086274;28;20039;-79
2023/05/21 02:35:13;;;;;;;;;;;;;;;;;;5066189;28;20518;-79
2023/05/21 02:37:39;;;;;;;8.80;6.47;;;;;;;;;;5073190;28;19923;-79
2023/05/21 02:40:06;;;;;;;10.75;7.60;;;;;;;;;;5072855;28;20044;-79
2023/05/21 02:42:32;;;;;;;8.98;6.47;;;;;;;;;;5082419;28;20081;-79
2023/05/21 02:44:58;;;;;;;10.80;6.70;;;;;;;;;;5064460;28;20048;-80
2023/05/21 02:47:24;;;;;;;9.38;6.80;;;;;;;;;;5060236;28;20268;-79
2023/05/21 02:49:51;;;;;;;9.75;6.60;;;;;;;;;;5065481;28;20784;-78
2023/05/21 02:52:17;;;;;;;8.90;6.95;;;;;;;;;;5067693;28;20071;-79
2023/05/21 02:54:44;;;;;;;12.32;6.53;;;;;;;;;;5081572;28;20049;-78
2023/05/21 02:57:10;;;;;;;10.93;7.18;;;;;;;;;;5055643;28;20958;-79
2023/05/21 02:59:36;;;;;;;8.75;6.72;;;;;;;;;;5079422;28;20042;-78
2023/05/21 03:02:02;;;;;;;11.20;7.20;;;;;;;;;;5059546;28;20032;-78
2023/05/21 03:04:28;;;;;;;10.68;7.00;;;;;;;;;;5063998;28;20039;-79
2023/05/21 03:06:55;;;;;;;10.05;6.10;;;;;;;;;;5063499;28;20067;-79
2023/05/21 03:09:21;;;;;;;10.70;7.40;;;;;;;;;;5056603;28;20075;-79
2023/05/21 03:11:49;;;;;;;11.98;6.82;;;;;;;;;;5083389;27;20606;-79
2023/05/21 03:14:15;;;;;;;10.27;6.18;;;;;;;;;;5093301;28;20044;-79
2023/05/21 03:16:42;;;;;;;13.25;7.57;;;;;;;;;;5078462;28;20044;-79
2023/05/21 03:19:12;;;;;;;10.07;6.43;;;;;;;;;;5056627;28;20044;-79
2023/05/21 03:21:38;;;;;;;11.05;6.60;;;;;;;;;;5080307;28;20036;-77
2023/05/21 03:24:05;;;;;;;11.23;6.90;;;;;;;;;;5061387;28;20036;-79
2023/05/21 03:26:31;;;;;;;13.85;6.60;;;;;;;;;;5083560;28;20114;-79
2023/05/21 03:28:57;;;;;;;13.43;6.88;;;;;;;;;;5079147;28;20069;-79
2023/05/21 03:31:26;;;;;;;11.00;6.55;;;;;;;;;;5053975;28;20040;-79
2023/05/21 03:33:53;;;;;;;12.80;6.43;;;;;;;;;;5059104;28;20044;-78
2023/05/21 03:36:19;;;;;;;11.35;6.43;;;;;;;;;;5061076;28;20047;-79
2023/05/21 03:38:45;;;;;;;10.57;6.70;;;;;;;;;;5071865;28;20097;-80
2023/05/21 03:41:12;;;;;;;10.35;6.05;;;;;;;;;;5076866;28;20538;-79
2023/05/21 03:43:38;;;;;;;12.55;6.60;;;;;;;;;;5078694;28;20043;-79
2023/05/21 03:46:03;;;;;;;9.45;6.60;;;;;;;;;;5058510;28;20751;-80
2023/05/21 03:48:29;;;;;;;9.93;6.72;;;;;;;;;;5079862;28;20134;-79
2023/05/21 03:50:56;;;;;;;11.02;6.97;;;;;;;;;;5076041;28;20123;-79
2023/05/21 03:53:22;;;;;;;12.23;7.20;;;;;;;;;;5064847;28;20050;-80
2023/05/21 03:55:53;;;;;;;12.75;6.82;;;;;;;;;;5068489;28;20048;-78
2023/05/21 03:58:20;;;;;;;10.85;6.40;;;;;;;;;;5058677;28;20139;-79
2023/05/21 04:00:46;;;;;;;12.38;6.32;;;;;;;;;;5088235;28;20517;-79
2023/05/21 04:03:13;;;;;;;14.13;6.85;;;;;;;;;;5090629;28;20036;-79
2023/05/21 04:05:40;;;;;;;13.70;6.32;;;;;;;;;;5094772;28;20798;-78
2023/05/21 04:08:06;;;;;;;15.27;6.75;;;;;;;;;;5076441;28;20039;-79
2023/05/21 04:10:32;;;;;;;10.20;7.10;;;;;;;;;;5086454;28;20032;-80
2023/05/21 04:12:58;;;;;;;11.75;7.40;;;;;;;;;;5064022;28;20131;-79
2023/05/21 04:15:24;;;;;;;11.95;6.68;;;;;;;;;;5078544;28;20044;-79
2023/05/21 04:17:51;;;;;;;14.25;6.85;;;;;;;;;;5084025;28;20040;-78
2023/05/21 04:20:17;;;;;;;12.20;7.30;;;;;;;;;;5061494;28;20036;-79
2023/05/21 04:22:43;;;;;;;17.45;6.63;;;;;;;;;;5088806;28;20133;-78
2023/05/21 04:25:09;;;;;;;10.35;6.93;;;;;;;;;;5071817;28;20048;-79
2023/05/21 04:27:36;;;;;;;12.27;7.25;;;;;;;;;;5055237;28;20090;-78
2023/05/21 04:30:03;;;;;;;9.32;6.40;;;;;;;;;;5077763;28;20040;-79
2023/05/21 04:32:33;;;;;;;11.95;6.55;;;;;;;;;;5072953;28;20147;-79
2023/05/21 04:34:59;;;;;;;11.02;6.72;;;;;;;;;;5068562;28;20779;-79
2023/05/21 04:37:30;;;;;;;10.43;6.15;;;;;;;;;;5073157;28;20122;-79
2023/05/21 04:39:57;;;;;;;12.20;6.47;;;;;;;;;;5077575;28;20037;-80
2023/05/21 04:42:23;;;;;;;10.85;6.50;;;;;;;;;;5061977;28;20510;-80
2023/05/21 04:44:49;;;;;;;12.02;6.47;;;;;;;;;;5070143;28;20124;-79
2023/05/21 04:47:18;;;;;;;10.43;6.47;;;;;;;;;;5059634;28;20119;-79
2023/05/21 04:49:45;;;;;;;11.52;6.00;;;;;;;;;;5088264;28;20040;-79
2023/05/21 04:52:11;;;;;;;10.18;6.00;;;;;;;;;;5082579;28;20051;-80
2023/05/21 04:54:37;;;;;;;9.98;6.28;;;;;;;;;;5091752;28;20066;-79
2023/05/21 04:57:04;;;;;;;8.95;5.93;;;;;;;;;;5082759;28;20460;-79
2023/05/21 04:59:31;;;;;;;14.50;6.00;;;;;;;;;;5070377;28;20112;-80
2023/05/21 05:01:57;;;;;;;9.85;5.97;;;;;;;;;;5079727;28;20048;-79
2023/05/21 05:04:23;;;;;;;12.73;6.28;;;;;;;;;;5079795;28;20047;-79
2023/05/21 05:06:50;;;;;;;10.15;6.28;;;;;;;;;;5089344;28;20054;-79
2023/05/21 05:09:17;;;;;;;13.95;6.50;;;;;;;;;;5082043;28;20048;-79
2023/05/21 05:11:43;;;;;;;9.57;6.10;;;;;;;;;;5074972;28;20076;-80
2023/05/21 05:14:09;;;;;;;9.00;5.90;;;;;;;;;;5079909;28;20489;-80
2023/05/21 05:16:35;;;;;;;15.98;6.10;;;;;;;;;;5086789;28;20527;-79
2023/05/21 05:19:01;;;;;;;11.63;6.07;;;;;;;;;;5062415;28;20035;-80
2023/05/21 05:21:27;;;;;;;11.75;5.63;;;;;;;;;;5062601;28;20040;-79
2023/05/21 05:23:53;;;;;;;12.27;5.85;;;;;;;;;;5066295;28;20044;-79
2023/05/21 05:26:20;;;;;;;10.52;5.65;;;;;;;;;;5085519;28;20036;-78
2023/05/21 05:28:46;;;;;;;12.02;6.05;;;;;;;;;;5068228;28;20071;-79
2023/05/21 05:31:12;;;;;;;12.32;5.80;;;;;;;;;;5078643;28;20151;-79
2023/05/21 05:33:39;;;;;;;9.15;5.68;;;;;;;;;;5081103;28;20036;-79
2023/05/21 05:36:05;;;;;;;10.63;5.68;;;;;;;;;;5063101;28;20052;-79
2023/05/21 05:38:31;;;;;;;9.70;5.40;;;;;;;;;;5071330;28;20144;-79
2023/05/21 05:40:57;;;;;;;9.80;5.40;;;;;;;;;;5072359;28;20497;-79
2023/05/21 05:43:25;;;;;;;8.55;5.78;;;;;;;;;;5078470;28;20040;-79
2023/05/21 05:45:51;;;;;;;10.65;5.45;;;;;;;;;;5065914;28;21480;-79
2023/05/21 05:48:17;;;;;;;14.25;5.93;;;;;;;;;;5071406;28;20507;-79
2023/05/21 05:50:43;;;;;;;9.88;5.30;;;;;;;;;;5089004;28;20097;-79
2023/05/21 05:53:12;;;;;;;11.38;5.32;;;;;;;;;;5078562;28;20678;-79
2023/05/21 05:55:38;;;;;;;12.75;5.25;;;;;;;;;;5071170;28;20295;-79
2023/05/21 05:58:04;;;;;;;9.88;5.15;;;;;;;;;;5068573;28;20046;-78
2023/05/21 06:00:31;;;;;;;11.20;5.25;;;;;;;;;;5078870;28;21852;-77
2023/05/21 06:02:57;;;;;;;10.57;5.38;;;;;;;;;;5058395;28;20043;-78
2023/05/21 06:05:23;;;;;;;7.68;5.05;;;;;;;;;;5063360;28;20136;-78
2023/05/21 06:07:49;;;;;;;11.07;4.90;;;;;;;;;;5069465;28;20408;-77
2023/05/21 06:10:15;;;;;;;9.63;5.40;;;;;;;;;;5089254;28;20051;-81
2023/05/21 06:12:41;;;;;;;12.82;5.18;;;;;;;;;;5068576;28;20044;-79
2023/05/21 06:15:07;;;;;;;6.88;4.35;;;;;;;;;;5084688;28;20112;-79
2023/05/21 06:17:33;;;;;;;8.65;5.30;;;;;;;;;;5100417;27;20036;-80
2023/05/21 06:19:59;;;;;;;10.05;5.45;;;;;;;;;;5064024;28;20153;-78
2023/05/21 06:22:25;;;;;;;7.88;4.95;;;;;;;;;;5059427;28;20229;-78
2023/05/21 06:24:51;;;;;;;12.43;4.82;;;;;;;;;;5059627;28;20614;-79
2023/05/21 06:27:17;;;;;;;6.95;4.50;;;;;;;;;;5065258;28;20147;-79
2023/05/21 06:29:43;;;;;;;8.93;4.97;;;;;;;;;;5075022;28;21015;-78
2023/05/21 06:32:09;;;;;;;9.82;4.82;;;;;;;;;;5073120;28;20591;-78
2023/05/21 06:34:35;;;;;;;9.80;5.05;;;;;;;;;;5083467;28;20160;-78
2023/05/21 06:37:01;;;;;;;9.77;4.95;;;;;;;;;;5063472;28;20040;-77
2023/05/21 06:39:27;;;;;;;7.55;4.88;;;;;;;;;;5064171;28;20048;-78
2023/05/21 06:41:53;;;;;;;10.02;4.88;;;;;;;;;;5063444;28;20677;-78
2023/05/21 06:44:19;;;;;;;9.45;4.97;;;;;;;;;;5066253;28;20040;-77
2023/05/21 06:46:45;;;;;;;9.73;4.70;;;;;;;;;;5086762;28;20044;-78
2023/05/21 06:49:15;;;;;;;11.00;4.82;;;;;;;;;;5102379;28;20024;-77
2023/05/21 06:51:41;;;;;;;7.00;4.70;;;;;;;;;;5082509;28;20422;-77
2023/05/21 06:54:07;;;;;;;10.02;4.72;;;;;;;;;;5097813;27;20047;-78
2023/05/21 06:56:33;;;;;;;6.43;4.70;;;;;;;;;;5080047;28;20069;-77
2023/05/21 06:58:58;;;;;;;9.77;4.90;;;;;;;;;;5083476;28;20039;-78
2023/05/21 07:01:25;;;;;;;7.10;4.63;;;;;;;;;;5066186;28;20412;-77
2023/05/21 07:03:51;;;;;;;9.57;4.53;;;;;;;;;;5079932;28;20585;-78
2023/05/21 07:06:17;;;;;;;10.30;4.70;;;;;;;;;;5080570;28;20441;-78
2023/05/21 07:08:43;;;;;;;11.13;5.32;;;;;;;;;;5062307;28;20055;-78
2023/05/21 07:11:09;;;;;;;8.73;4.95;;;;;;;;;;5079975;28;20039;-77
2023/05/21 07:13:35;;;;;;;7.85;4.90;;;;;;;;;;5070580;28;20028;-77
2023/05/21 07:16:01;;;;;;;9.18;4.50;;;;;;;;;;5082286;28;20111;-78
2023/05/21 07:18:27;;;;;;;6.82;4.55;;;;;;;;;;5081266;28;20507;-77
2023/05/21 07:20:53;;;;;;;7.78;4.68;;;;;;;;;;5074479;28;20151;-77
2023/05/21 07:23:20;;;;;;;10.60;4.88;;;;;;;;;;5080330;28;20370;-77
2023/05/21 07:25:46;;;;;;;8.02;4.72;;;;;;;;;;5063441;28;20040;-78
2023/05/21 07:28:12;;;;;;;9.25;4.68;;;;;;;;;;5077989;28;20048;-78
2023/05/21 07:30:38;;;;;;;9.20;4.38;;;;;;;;;;5059901;28;20391;-78
2023/05/21 07:33:04;;;;;;;8.38;3.95;;;;;;;;;;5062881;28;20036;-78
2023/05/21 07:35:30;;;;;;;10.15;4.75;;;;;;;;;;5083542;28;20338;-78
2023/05/21 07:37:56;;;;;;;10.35;4.90;;;;;;;;;;5079296;28;20043;-77
2023/05/21 07:40:22;;;;;;;11.32;4.95;;;;;;;;;;5063071;28;20510;-77
2023/05/21 07:42:48;;;;;;;10.35;5.07;;;;;;;;;;5074333;28;20081;-78
2023/05/21 07:45:14;;;;;;;7.15;4.60;;;;;;;;;;5072955;28;20065;-80
2023/05/21 07:47:40;;;;;;;9.18;4.75;;;;;;;;;;5081439;28;20048;-79
2023/05/21 07:50:06;;;;;;;7.03;4.75;;;;;;;;;;5064892;28;20697;-78
2023/05/21 07:52:32;;;;;;;9.30;5.10;;;;;;;;;;5080223;28;20079;-78
2023/05/21 07:55:01;;;;;;;8.65;5.00;;;;;;;;;;5084531;28;20091;-77
2023/05/21 07:57:27;;;;;;;11.27;5.22;;;;;;;;;;5079732;28;20046;-78
2023/05/21 08:00:02;;;;;;;10.32;5.05;;;;;;;;;;5062330;28;20044;-77
2023/05/21 08:02:28;;;;;;;7.93;5.15;;;;;;;;;;5093297;28;20478;-77
2023/05/21 08:04:54;;;;;;;8.85;5.28;;;;;;;;;;5068729;28;20059;-77
2023/05/21 08:07:20;;;;;;;10.32;5.50;;;;;;;;;;5070091;28;20139;-77
2023/05/21 08:09:47;;;;;;;10.15;5.20;;;;;;;;;;5056071;28;20048;-77
2023/05/21 08:12:14;;;;;;;7.45;5.00;;;;;;;;;;5071177;28;20048;-77
2023/05/21 08:14:41;;;;;;;9.00;5.33;;;;;;;;;;5071558;28;20130;-78
2023/05/21 08:17:10;;;;;;;9.27;5.30;;;;;;;;;;5074027;28;20039;-78
2023/05/21 08:19:38;;;;;;;15.43;4.97;;;;;;;;;;5074365;28;20096;-77
2023/05/21 08:22:08;;;;;;;10.45;5.40;;;;;;;;;;5072599;28;20059;-77
2023/05/21 08:24:34;;;;;;;12.40;5.13;;;;;;;;;;5067865;28;20048;-78
2023/05/21 08:27:00;;;;;;;11.90;5.05;;;;;;;;;;5066139;28;20051;-78
2023/05/21 08:29:28;;;;;;;10.70;5.10;;;;;;;;;;5069289;28;20088;-77
2023/05/21 08:31:55;;;;;;;;;;;;;;;;;;5072107;28;20040;-77
2023/05/21 08:34:27;;;;;;;9.70;5.00;;;;;;;;;;5058815;28;19976;-76
2023/05/21 08:36:59;;;;;;;10.40;5.40;;;;;;;;;;5073130;28;20093;-78
2023/05/21 08:39:25;;;;;;;9.30;4.93;;;;;;;;;;5080566;28;20051;-78
2023/05/21 08:41:55;;;;;;;10.48;5.30;;;;;;;;;;5075858;28;20036;-77
2023/05/21 08:44:24;;;;;;;9.50;5.35;;;;;;;;;;5100461;27;20036;-77
2023/05/21 08:46:50;;;;;;;9.88;5.47;;;;;;;;;;5074597;28;20088;-77
2023/05/21 08:49:17;;;;;;;10.10;5.47;;;;;;;;;;5052438;28;20067;-77
2023/05/21 08:51:47;;;;;;;9.05;5.20;;;;;;;;;;5071855;28;20048;-78
2023/05/21 08:54:13;;;;;;;11.95;7.30;;;;;;;;;;5066487;28;20056;-77
2023/05/21 08:56:44;;;;;;;7.85;4.97;;;;;;;;;;5072110;28;20059;-77
2023/05/21 08:59:10;;;;;;;8.63;5.18;;;;;;;;;;5087227;28;20047;-77
2023/05/21 09:01:37;;;;;;;10.95;5.25;;;;;;;;;;5072635;28;21693;-77
2023/05/21 09:04:03;;;;;;;7.50;5.05;;;;;;;;;;5085840;28;20071;-77
2023/05/21 09:06:32;;;;;;;9.88;4.97;;;;;;;;;;5073414;28;20048;-76
2023/05/21 09:09:08;;;;;;;11.65;4.90;;;;;;;;;;5053570;28;20044;-77
2023/05/21 09:11:34;;;;;;;10.15;5.30;;;;;;;;;;5096020;27;20036;-77
2023/05/21 09:14:00;;;;;;;7.43;5.10;;;;;;;;;;5073269;28;20736;-78
2023/05/21 09:16:26;;;;;;;9.43;4.93;;;;;;;;;;5085606;27;20036;-77
2023/05/21 09:18:52;;;;;;;8.48;4.60;;;;;;;;;;5075351;28;20150;-78
2023/05/21 09:21:25;;;;;;;8.98;5.03;;;;;;;;;;5054410;28;20309;-77
2023/05/21 09:23:56;;;;;;;8.63;4.93;;;;;;;;;;5064060;28;20055;-77
2023/05/21 09:26:23;;;;;;;7.05;4.68;;;;;;;;;;5053367;28;20074;-77
2023/05/21 09:28:49;;;;;;;9.90;4.70;;;;;;;;;;5091045;28;20051;-77
2023/05/21 09:31:15;;;;;;;11.18;5.03;;;;;;;;;;5088542;28;20058;-77
2023/05/21 09:33:47;;;;;;;9.32;5.28;;;;;;;;;;5077997;28;20115;-77
2023/05/21 09:36:13;;;;;;;9.25;5.57;;;;;;;;;;5070532;28;20671;-77
2023/05/21 09:38:39;;;;;;;7.72;4.68;;;;;;;;;;5080219;28;20059;-78
2023/05/21 09:41:05;;;;;;;8.93;5.10;;;;;;;;;;5074434;28;20365;-77
2023/05/21 09:43:32;;;;;;;9.75;4.97;;;;;;;;;;5064972;28;20035;-77
2023/05/21 09:45:59;;;;;;;10.10;5.38;;;;;;;;;;5066573;28;20058;-76
2023/05/21 09:48:33;;;;;;;10.15;4.80;;;;;;;;;;5076382;28;20066;-77
2023/05/21 09:51:09;;;;;;;8.18;5.07;;;;;;;;;;5098774;27;20115;-77
2023/05/21 09:53:35;;;;;;;11.32;4.97;;;;;;;;;;5072798;28;20500;-79
2023/05/21 09:56:02;;;;;;;8.20;4.78;;;;;;;;;;5073955;28;20058;-77
2023/05/21 09:58:28;;;;;;;11.30;5.05;;;;;;;;;;5069349;28;20036;-77
2023/05/21 10:00:54;;;;;;;6.55;4.90;;;;;;;;;;5061001;28;20664;-77
2023/05/21 10:03:22;;;;;;;12.75;4.80;;;;;;;;;;5062205;28;20158;-77
2023/05/21 10:05:51;;;;;;;8.07;4.88;;;;;;;;;;5074197;28;20093;-78
2023/05/21 10:08:21;;;;;;;10.95;5.10;;;;;;;;;;5051194;28;20043;-77
2023/05/21 10:10:47;;;;;;;8.70;4.93;;;;;;;;;;5053234;28;20051;-78
2023/05/21 10:13:14;;;;;;;8.02;4.85;;;;;;;;;;5058834;28;20159;-78
2023/05/21 10:15:42;;;;;;;8.25;4.75;;;;;;;;;;5054625;28;20545;-78
2023/05/21 10:18:09;;;;;;;12.30;4.70;;;;;;;;;;5056793;28;20044;-77
2023/05/21 10:20:36;;;;;;;7.60;4.78;;;;;;;;;;5065465;28;20043;-77
2023/05/21 10:23:02;;;;;;;8.00;5.15;;;;;;;;;;5082413;27;20047;-78
2023/05/21 10:25:28;;;;;;;11.70;5.13;;;;;;;;;;5067315;28;20044;-76
2023/05/21 10:27:55;;;;;;;7.57;5.18;;;;;;;;;;5073641;28;20040;-78
2023/05/21 10:30:21;;;;;;;9.43;5.13;;;;;;;;;;5076679;28;20069;-78
2023/05/21 10:32:48;;;;;;;10.38;5.65;;;;;;;;;;5085935;28;20044;-79
2023/05/21 10:35:15;;;;;;;12.50;5.45;;;;;;;;;;5078959;28;20043;-80
2023/05/21 10:37:43;;;;;;;9.88;5.40;;;;;;;;;;5111529;27;20032;-77
2023/05/21 10:40:09;;;;;;;8.27;5.90;;;;;;;;;;5057643;28;20578;-78
2023/05/21 10:42:36;;;;;;;9.23;5.65;;;;;;;;;;5073223;28;20075;-79
2023/05/21 10:45:21;;;;;;;11.30;5.47;;;;;;;;;;5076931;28;20657;-79
2023/05/21 10:47:50;;;;;;;10.90;5.35;;;;;;;;;;5075752;28;20047;-79
2023/05/21 10:50:28;;;;;;;9.45;5.40;;;;;;;;;;5075152;28;20839;-80
2023/05/21 10:52:55;;;;;;;;;;;;;;;;;;5073663;28;20044;-78
2023/05/21 10:55:40;;;;;;;10.70;5.83;;;;;;;;;;5071979;28;19946;-78
2023/05/21 10:58:32;;;;;;;10.52;5.85;;;;;;;;;;5055557;28;20055;-78
2023/05/21 11:00:58;;;;;;;12.90;7.35;;;;;;;;;;5058055;28;20131;-78
2023/05/21 11:03:25;;;;;;;13.02;8.00;;;;;;;;;;5085366;28;20036;-77
2023/05/21 11:05:52;;;;;;;15.35;8.63;;;;;;;;;;5079273;28;20591;-78
2023/05/21 11:08:21;;;;;;;14.20;8.63;;;;;;;;;;5075559;28;20598;-78
2023/05/21 11:10:51;;;;;;;11.55;7.30;;;;;;;;;;5061497;28;20233;-79
2023/05/21 11:13:22;;;;;;;15.95;8.05;;;;;;;;;;5056126;28;20377;-79
2023/05/21 11:15:57;;;;;;;12.30;7.95;;;;;;;;;;5060788;28;20063;-78
2023/05/21 11:18:36;;;;;;;19.45;8.57;;;;;;;;;;5105011;27;20217;-78
2023/05/21 11:21:05;;;;;;;12.40;8.32;;;;;;;;;;5074785;28;20131;-79
2023/05/21 11:23:48;;;;;;;15.73;9.30;;;;;;;;;;5070189;28;20047;-78
2023/05/21 11:26:15;;;;;;;12.40;8.35;;;;;;;;;;5072441;28;20085;-78
2023/05/21 11:28:41;;;;;;;15.90;8.27;;;;;;;;;;5106175;27;20126;-79
2023/05/21 11:31:24;;;;;;;13.77;8.93;;;;;;;;;;5051899;28;20028;-79
2023/05/21 11:34:08;;;;;;;14.68;9.73;;;;;;;;;;5071492;28;20071;-78
2023/05/21 11:36:36;;;;;;;12.77;9.10;;;;;;;;;;5070444;28;20036;-79
2023/05/21 11:39:29;;;;;;;19.67;11.07;;;;;;;;;;5073189;28;20054;-78
2023/05/21 11:41:59;;;;;;;18.52;11.43;;;;;;;;;;5069304;28;20519;-78
2023/05/21 11:44:40;;;;;;;15.55;11.70;;;;;;;;;;5072680;28;20039;-78
2023/05/21 11:47:07;;;;;;;17.75;11.50;;;;;;;;;;5072433;28;20138;-79
2023/05/21 11:49:33;;;;;;;14.88;9.48;;;;;;;;;;5055131;28;20109;-78
2023/05/21 11:52:00;;;;;;;15.57;9.07;;;;;;;;;;5056608;28;20048;-79
2023/05/21 11:54:26;;;;;;;12.90;9.13;;;;;;;;;;5056126;28;20065;-79
2023/05/21 11:56:54;;;;;;;14.13;10.43;;;;;;;;;;5072551;28;20044;-79
2023/05/21 11:59:20;;;;;;;15.23;10.63;;;;;;;;;;5055686;28;20083;-79
2023/05/21 12:01:46;;;;;;;13.93;9.23;;;;;;;;;;5056394;28;20618;-79
2023/05/21 12:04:12;;;;;;;12.60;9.95;;;;;;;;;;5055700;28;20044;-79
2023/05/21 12:06:41;;;;;;;16.10;12.02;;;;;;;;;;5060339;28;20133;-78
2023/05/21 12:09:08;;;;;;;15.20;10.70;;;;;;;;;;5075862;28;20771;-79
2023/05/21 12:11:34;;;;;;;20.67;13.18;;;;;;;;;;5076285;28;20028;-78
2023/05/21 12:14:00;;;;;;;20.88;14.05;;;;;;;;;;5061159;28;20044;-79
2023/05/21 12:16:26;;;;;;;20.58;13.20;;;;;;;;;;5071875;28;20638;-79
2023/05/21 12:18:53;;;;;;;17.80;12.90;;;;;;;;;;5074850;28;20035;-78
2023/05/21 12:21:19;;;;;;;16.00;11.23;;;;;;;;;;5058430;28;20048;-78
2023/05/21 12:23:45;;;;;;;16.60;11.70;;;;;;;;;;5072897;28;20074;-79
2023/05/21 12:26:12;;;;;;;16.55;11.35;;;;;;;;;;5073886;28;20051;-79
2023/05/21 12:28:39;;;;;;;17.58;12.23;;;;;;;;;;5058451;28;20048;-79
2023/05/21 12:31:05;;;;;;;18.90;10.73;;;;;;;;;;5074655;28;20163;-79
2023/05/21 12:33:34;;;;;;;17.13;11.05;;;;;;;;;;5070036;28;20048;-79
2023/05/21 12:36:02;;;;;;;15.90;10.38;;;;;;;;;;5074470;28;20132;-79
2023/05/21 12:38:28;;;;;;;;;;;;;;;;;;5079425;28;20514;-78
2023/05/21 12:40:54;;;;;;;15.45;10.13;;;;;;;;;;5061128;28;19928;-79
2023/05/21 12:43:20;;;;;;;13.40;9.93;;;;;;;;;;5074658;28;20055;-79
2023/05/21 12:45:46;;;;;;;16.88;11.60;;;;;;;;;;5075868;28;20206;-78
2023/05/21 12:48:12;;;;;;;17.08;10.57;;;;;;;;;;5061471;28;20055;-79
2023/05/21 12:50:45;;;;;;;14.85;10.13;;;;;;;;;;5080095;28;20117;-77
2023/05/21 12:53:14;;;;;;;23.15;10.85;;;;;;;;;;5072556;28;20055;-78
2023/05/21 12:55:40;;;;;;;14.90;10.27;;;;;;;;;;5081275;28;20135;-77
2023/05/21 12:58:09;;;;;;;14.30;9.88;;;;;;;;;;5079677;28;20413;-79
2023/05/21 13:00:35;;;;;;;15.32;10.55;;;;;;;;;;5071662;28;20377;-79
2023/05/21 13:03:03;;;;;;;13.90;10.82;;;;;;;;;;5075823;28;20040;-79
2023/05/21 13:05:29;;;;;;;19.65;11.45;;;;;;;;;;5074995;28;20403;-79
2023/05/21 13:07:55;;;;;;;20.23;11.68;;;;;;;;;;5078396;28;20063;-79
2023/05/21 13:10:21;;;;;;;13.98;10.57;;;;;;;;;;5043406;28;20127;-79
2023/05/21 13:12:47;;;;;;;22.13;10.75;;;;;;;;;;5080834;28;20217;-79
2023/05/21 13:15:14;;;;;;;19.67;11.40;;;;;;;;;;5078751;28;20044;-78
2023/05/21 13:17:40;;;;;;;18.10;11.80;;;;;;;;;;5074973;28;20559;-79
2023/05/21 13:20:11;;;;;;;18.15;12.00;;;;;;;;;;5077005;28;20047;-78
2023/05/21 13:22:40;;;;;;;17.00;12.52;;;;;;;;;;5077338;28;20476;-80
2023/05/21 13:25:06;;;;;;;16.23;10.85;;;;;;;;;;5071730;28;20047;-78
2023/05/21 13:27:32;;;;;;;17.88;11.43;;;;;;;;;;5058258;28;20162;-78
2023/05/21 13:29:58;;;;;;;19.98;12.68;;;;;;;;;;5058303;28;20595;-79
2023/05/21 13:32:24;;;;;;;20.13;12.20;;;;;;;;;;5078464;28;20082;-78
2023/05/21 13:34:50;;;;;;;18.52;13.50;;;;;;;;;;5079172;28;20174;-79
2023/05/21 13:37:16;;;;;;;22.27;12.63;;;;;;;;;;5072620;28;20590;-79
2023/05/21 13:39:42;;;;;;;19.55;12.23;;;;;;;;;;5076721;28;20110;-78
2023/05/21 13:42:08;;;;;;;19.02;11.38;;;;;;;;;;5056743;28;20134;-79
2023/05/21 13:44:35;;;;;;;24.08;16.08;;;;;;;;;;5061570;28;20073;-79
2023/05/21 13:47:05;;;;;;;21.95;16.75;;;;;;;;;;5073490;28;20041;-79
2023/05/21 13:49:31;;;;;;;20.52;15.95;;;;;;;;;;5098404;27;20044;-80
2023/05/21 13:51:58;;;;;;;21.05;16.05;;;;;;;;;;5078830;28;20044;-79
2023/05/21 13:54:28;;;;;;;23.10;16.45;;;;;;;;;;5079338;28;20607;-79
2023/05/21 13:56:55;;;;;;;21.88;15.40;;;;;;;;;;5074145;28;20055;-79
2023/05/21 13:59:21;;;;;;;24.25;16.42;;;;;;;;;;5075458;28;20055;-77
2023/05/21 14:01:48;;;;;;;19.33;16.33;;;;;;;;;;5055509;28;20055;-75
2023/05/21 14:06:51;;;;;;;21.25;15.73;;;;;;;;;;5592854;22;20143;-74
2023/05/21 14:09:17;;;;;;;20.42;15.88;;;;;;;;;;5051167;28;20056;-74
2023/05/21 14:11:43;;;;;;;19.02;15.98;;;;;;;;;;5050724;28;20523;-73
2023/05/21 14:14:09;;;;;;;22.45;16.52;;;;;;;;;;5030059;28;20041;-71
2023/05/21 14:16:35;;;;;;;21.75;15.88;;;;;;;;;;5057930;28;20128;-73
2023/05/21 14:19:01;;;;;;;20.83;16.02;;;;;;;;;;5049208;28;20066;-72
2023/05/21 14:21:27;;;;;;;21.77;17.10;;;;;;;;;;5036823;28;20129;-74
2023/05/21 14:23:53;;;;;;;28.77;17.23;;;;;;;;;;5057239;28;20499;-72
2023/05/21 14:26:19;;;;;;;22.45;15.93;;;;;;;;;;5051590;28;20102;-72
2023/05/21 14:28:45;;;;;;;23.08;15.90;;;;;;;;;;5058778;28;20037;-73
2023/05/21 14:31:11;;;;;;;23.58;17.02;;;;;;;;;;5053308;28;20110;-73
2023/05/21 14:33:38;;;;;;;19.63;16.95;;;;;;;;;;5058830;28;20056;-74
2023/05/21 14:36:04;;;;;;;19.02;15.65;;;;;;;;;;5035086;28;20064;-73